sensor_id;sensor_type;location;lat;lon;timestamp;P1;durP1;ratioP1;P2;durP2;ratioP2
20997;SDS011;10657;51.276;6.390;2023-03-22T00:02:06;8.82;;;5.03;;
20997;SDS011;10657;51.276;6.390;2023-03-22T00:04:33;10.90;;;5.93;;
20997;SDS011;10657;51.276;6.390;2023-03-22T00:06:59;12.65;;;6.30;;
20997;SDS011;10657;51.276;6.390;2023-03-22T00:09:26;11.25;;;6.32;;
20997;SDS011;10657;51.276;6.390;2023-03-22T00:11:53;10.20;;;5.30;;
20997;SDS011;10657;51.276;6.390;2023-03-22T00:14:19;12.75;;;6.00;;
20997;SDS011;10657;51.276;6.390;2023-03-22T00:16:46;12.00;;;6.15;;
20997;SDS011;10657;51.276;6.390;2023-03-22T00:19:14;9.85;;;4.93;;
20997;SDS011;10657;51.276;6.390;2023-03-22T00:21:42;8.93;;;4.90;;
20997;SDS011;10657;51.276;6.390;2023-03-22T00:24:09;12.52;;;5.20;;
20997;SDS011;10657;51.276;6.390;2023-03-22T00:26:36;8.00;;;4.22;;
20997;SDS011;10657;51.276;6.390;2023-03-22T00:29:03;7.25;;;4.05;;
20997;SDS011;10657;51.276;6.390;2023-03-22T00:31:30;10.25;;;3.00;;
20997;SDS011;10657;51.276;6.390;2023-03-22T00:33:56;10.88;;;4.90;;
20997;SDS011;10657;51.276;6.390;2023-03-22T00:36:23;10.10;;;5.05;;
20997;SDS011;10657;51.276;6.390;2023-03-22T00:38:50;9.32;;;5.32;;
20997;SDS011;10657;51.276;6.390;2023-03-22T00:41:18;9.13;;;5.30;;
20997;SDS011;10657;51.276;6.390;2023-03-22T00:43:46;11.63;;;5.70;;
20997;SDS011;10657;51.276;6.390;2023-03-22T00:46:15;10.30;;;5.55;;
20997;SDS011;10657;51.276;6.390;2023-03-22T00:48:43;11.77;;;5.18;;
20997;SDS011;10657;51.276;6.390;2023-03-22T00:51:10;9.73;;;5.38;;
20997;SDS011;10657;51.276;6.390;2023-03-22T00:53:38;11.88;;;5.82;;
20997;SDS011;10657;51.276;6.390;2023-03-22T00:56:08;15.13;;;6.45;;
20997;SDS011;10657;51.276;6.390;2023-03-22T00:58:38;11.80;;;6.18;;
20997;SDS011;10657;51.276;6.390;2023-03-22T01:01:05;11.93;;;5.53;;
20997;SDS011;10657;51.276;6.390;2023-03-22T01:03:32;7.00;;;3.45;;
20997;SDS011;10657;51.276;6.390;2023-03-22T01:06:00;12.23;;;6.60;;
20997;SDS011;10657;51.276;6.390;2023-03-22T01:08:26;10.45;;;5.80;;
20997;SDS011;10657;51.276;6.390;2023-03-22T01:10:58;9.88;;;4.25;;
20997;SDS011;10657;51.276;6.390;2023-03-22T01:13:25;9.38;;;4.82;;
20997;SDS011;10657;51.276;6.390;2023-03-22T01:15:52;7.95;;;3.38;;
20997;SDS011;10657;51.276;6.390;2023-03-22T01:18:19;4.85;;;2.25;;
20997;SDS011;10657;51.276;6.390;2023-03-22T01:20:47;10.50;;;6.20;;
20997;SDS011;10657;51.276;6.390;2023-03-22T01:23:13;7.47;;;3.75;;
20997;SDS011;10657;51.276;6.390;2023-03-22T01:25:41;9.70;;;4.93;;
20997;SDS011;10657;51.276;6.390;2023-03-22T01:28:08;9.63;;;5.32;;
20997;SDS011;10657;51.276;6.390;2023-03-22T01:30:35;9.68;;;5.20;;
20997;SDS011;10657;51.276;6.390;2023-03-22T01:33:05;6.65;;;3.70;;
20997;SDS011;10657;51.276;6.390;2023-03-22T01:35:33;8.85;;;3.80;;
20997;SDS011;10657;51.276;6.390;2023-03-22T01:38:00;9.73;;;4.85;;
20997;SDS011;10657;51.276;6.390;2023-03-22T01:40:27;7.28;;;3.95;;
20997;SDS011;10657;51.276;6.390;2023-03-22T01:42:54;7.25;;;3.05;;
20997;SDS011;10657;51.276;6.390;2023-03-22T01:47:51;9.63;;;4.10;;
20997;SDS011;10657;51.276;6.390;2023-03-22T01:50:22;7.80;;;4.45;;
20997;SDS011;10657;51.276;6.390;2023-03-22T01:52:51;10.45;;;5.40;;
20997;SDS011;10657;51.276;6.390;2023-03-22T01:55:20;9.38;;;4.43;;
20997;SDS011;10657;51.276;6.390;2023-03-22T01:57:48;8.50;;;4.32;;
20997;SDS011;10657;51.276;6.390;2023-03-22T02:00:16;9.15;;;4.80;;
20997;SDS011;10657;51.276;6.390;2023-03-22T02:02:45;8.00;;;4.22;;
20997;SDS011;10657;51.276;6.390;2023-03-22T02:05:14;9.15;;;4.63;;
20997;SDS011;10657;51.276;6.390;2023-03-22T02:07:42;7.97;;;3.90;;
20997;SDS011;10657;51.276;6.390;2023-03-22T02:10:14;8.75;;;4.38;;
20997;SDS011;10657;51.276;6.390;2023-03-22T02:27:34;8.30;;;3.70;;
20997;SDS011;10657;51.276;6.390;2023-03-22T02:55:05;6.80;;;3.15;;
20997;SDS011;10657;51.276;6.390;2023-03-22T02:57:58;6.22;;;2.83;;
20997;SDS011;10657;51.276;6.390;2023-03-22T03:00:29;7.68;;;3.53;;
20997;SDS011;10657;51.276;6.390;2023-03-22T03:02:58;8.73;;;3.78;;
20997;SDS011;10657;51.276;6.390;2023-03-22T03:05:40;6.05;;;2.70;;
20997;SDS011;10657;51.276;6.390;2023-03-22T03:08:10;6.35;;;3.15;;
20997;SDS011;10657;51.276;6.390;2023-03-22T03:10:40;8.05;;;3.50;;
20997;SDS011;10657;51.276;6.390;2023-03-22T03:13:12;7.00;;;2.90;;
20997;SDS011;10657;51.276;6.390;2023-03-22T03:15:40;9.43;;;3.95;;
20997;SDS011;10657;51.276;6.390;2023-03-22T03:18:17;9.13;;;3.47;;
20997;SDS011;10657;51.276;6.390;2023-03-22T03:26:22;4.50;;;2.10;;
20997;SDS011;10657;51.276;6.390;2023-03-22T03:29:07;7.88;;;3.47;;
20997;SDS011;10657;51.276;6.390;2023-03-22T03:31:41;6.50;;;2.97;;
20997;SDS011;10657;51.276;6.390;2023-03-22T03:34:25;6.70;;;3.08;;
20997;SDS011;10657;51.276;6.390;2023-03-22T03:37:05;7.88;;;3.25;;
20997;SDS011;10657;51.276;6.390;2023-03-22T03:39:43;5.78;;;2.40;;
20997;SDS011;10657;51.276;6.390;2023-03-22T03:42:16;5.82;;;2.60;;
20997;SDS011;10657;51.276;6.390;2023-03-22T03:44:44;8.68;;;3.42;;
20997;SDS011;10657;51.276;6.390;2023-03-22T03:47:11;7.05;;;3.50;;
20997;SDS011;10657;51.276;6.390;2023-03-22T03:49:38;6.75;;;2.88;;
20997;SDS011;10657;51.276;6.390;2023-03-22T03:52:04;8.02;;;3.17;;
20997;SDS011;10657;51.276;6.390;2023-03-22T03:54:31;8.10;;;3.50;;
20997;SDS011;10657;51.276;6.390;2023-03-22T03:56:58;7.50;;;3.05;;
20997;SDS011;10657;51.276;6.390;2023-03-22T03:59:29;6.32;;;2.28;;
20997;SDS011;10657;51.276;6.390;2023-03-22T04:01:55;8.95;;;3.67;;
20997;SDS011;10657;51.276;6.390;2023-03-22T04:04:23;4.80;;;1.92;;
20997;SDS011;10657;51.276;6.390;2023-03-22T04:06:53;8.15;;;3.28;;
20997;SDS011;10657;51.276;6.390;2023-03-22T04:09:26;5.90;;;2.60;;
20997;SDS011;10657;51.276;6.390;2023-03-22T04:11:55;8.20;;;3.28;;
20997;SDS011;10657;51.276;6.390;2023-03-22T04:14:23;8.60;;;3.40;;
20997;SDS011;10657;51.276;6.390;2023-03-22T04:16:51;5.72;;;2.22;;
20997;SDS011;10657;51.276;6.390;2023-03-22T04:19:18;5.90;;;2.03;;
20997;SDS011;10657;51.276;6.390;2023-03-22T04:21:45;6.60;;;2.45;;
20997;SDS011;10657;51.276;6.390;2023-03-22T04:24:12;6.10;;;2.13;;
20997;SDS011;10657;51.276;6.390;2023-03-22T04:26:40;7.18;;;2.38;;
20997;SDS011;10657;51.276;6.390;2023-03-22T04:29:07;6.43;;;2.72;;
20997;SDS011;10657;51.276;6.390;2023-03-22T04:31:34;10.15;;;3.25;;
20997;SDS011;10657;51.276;6.390;2023-03-22T04:34:01;5.20;;;2.28;;
20997;SDS011;10657;51.276;6.390;2023-03-22T04:36:31;5.50;;;1.83;;
20997;SDS011;10657;51.276;6.390;2023-03-22T04:39:02;7.43;;;3.03;;
20997;SDS011;10657;51.276;6.390;2023-03-22T04:41:31;6.30;;;2.42;;
20997;SDS011;10657;51.276;6.390;2023-03-22T04:43:58;6.53;;;2.20;;
20997;SDS011;10657;51.276;6.390;2023-03-22T04:46:29;7.57;;;2.65;;
20997;SDS011;10657;51.276;6.390;2023-03-22T04:48:56;7.15;;;3.08;;
20997;SDS011;10657;51.276;6.390;2023-03-22T04:51:24;7.10;;;2.80;;
20997;SDS011;10657;51.276;6.390;2023-03-22T04:53:51;6.38;;;2.28;;
20997;SDS011;10657;51.276;6.390;2023-03-22T04:56:18;7.45;;;2.53;;
20997;SDS011;10657;51.276;6.390;2023-03-22T04:58:45;6.15;;;2.35;;
20997;SDS011;10657;51.276;6.390;2023-03-22T05:01:13;4.18;;;1.67;;
20997;SDS011;10657;51.276;6.390;2023-03-22T05:03:41;5.78;;;2.30;;
20997;SDS011;10657;51.276;6.390;2023-03-22T05:06:10;7.65;;;3.00;;
20997;SDS011;10657;51.276;6.390;2023-03-22T05:08:37;6.10;;;2.90;;
20997;SDS011;10657;51.276;6.390;2023-03-22T05:11:05;7.40;;;2.83;;
20997;SDS011;10657;51.276;6.390;2023-03-22T05:13:38;6.22;;;2.30;;
20997;SDS011;10657;51.276;6.390;2023-03-22T05:16:05;5.47;;;2.03;;
20997;SDS011;10657;51.276;6.390;2023-03-22T05:18:33;6.30;;;2.30;;
20997;SDS011;10657;51.276;6.390;2023-03-22T05:21:03;8.60;;;3.35;;
20997;SDS011;10657;51.276;6.390;2023-03-22T05:23:31;10.40;;;2.80;;
20997;SDS011;10657;51.276;6.390;2023-03-22T05:25:58;10.98;;;3.35;;
20997;SDS011;10657;51.276;6.390;2023-03-22T05:28:26;10.63;;;2.75;;
20997;SDS011;10657;51.276;6.390;2023-03-22T05:30:53;4.47;;;1.85;;
20997;SDS011;10657;51.276;6.390;2023-03-22T05:33:22;7.18;;;2.92;;
20997;SDS011;10657;51.276;6.390;2023-03-22T05:35:49;6.82;;;2.78;;
20997;SDS011;10657;51.276;6.390;2023-03-22T05:38:16;8.25;;;2.38;;
20997;SDS011;10657;51.276;6.390;2023-03-22T05:40:43;6.40;;;2.40;;
20997;SDS011;10657;51.276;6.390;2023-03-22T05:43:10;9.07;;;3.25;;
20997;SDS011;10657;51.276;6.390;2023-03-22T05:45:37;9.25;;;3.10;;
20997;SDS011;10657;51.276;6.390;2023-03-22T05:48:03;5.57;;;1.58;;
20997;SDS011;10657;51.276;6.390;2023-03-22T05:50:30;6.70;;;2.67;;
20997;SDS011;10657;51.276;6.390;2023-03-22T05:52:58;6.43;;;2.63;;
20997;SDS011;10657;51.276;6.390;2023-03-22T05:55:25;3.90;;;1.20;;
20997;SDS011;10657;51.276;6.390;2023-03-22T05:57:52;9.13;;;2.85;;
20997;SDS011;10657;51.276;6.390;2023-03-22T06:00:19;10.77;;;3.33;;
20997;SDS011;10657;51.276;6.390;2023-03-22T06:02:47;10.15;;;3.25;;
20997;SDS011;10657;51.276;6.390;2023-03-22T06:05:15;8.18;;;3.00;;
20997;SDS011;10657;51.276;6.390;2023-03-22T06:07:42;8.18;;;3.08;;
20997;SDS011;10657;51.276;6.390;2023-03-22T06:10:10;7.68;;;2.80;;
20997;SDS011;10657;51.276;6.390;2023-03-22T06:12:38;5.90;;;2.10;;
20997;SDS011;10657;51.276;6.390;2023-03-22T06:15:06;8.45;;;3.30;;
20997;SDS011;10657;51.276;6.390;2023-03-22T06:17:33;11.48;;;3.20;;
20997;SDS011;10657;51.276;6.390;2023-03-22T06:20:01;10.25;;;2.58;;
20997;SDS011;10657;51.276;6.390;2023-03-22T06:22:34;9.30;;;1.98;;
20997;SDS011;10657;51.276;6.390;2023-03-22T06:25:01;4.50;;;1.55;;
20997;SDS011;10657;51.276;6.390;2023-03-22T06:27:28;6.57;;;2.28;;
20997;SDS011;10657;51.276;6.390;2023-03-22T06:29:54;9.15;;;2.10;;
20997;SDS011;10657;51.276;6.390;2023-03-22T06:32:21;11.00;;;2.58;;
20997;SDS011;10657;51.276;6.390;2023-03-22T06:34:52;8.70;;;2.13;;
20997;SDS011;10657;51.276;6.390;2023-03-22T06:37:19;5.80;;;1.63;;
20997;SDS011;10657;51.276;6.390;2023-03-22T06:39:46;8.20;;;2.58;;
20997;SDS011;10657;51.276;6.390;2023-03-22T06:42:13;5.30;;;1.48;;
20997;SDS011;10657;51.276;6.390;2023-03-22T06:44:40;8.23;;;2.50;;
20997;SDS011;10657;51.276;6.390;2023-03-22T06:47:09;7.72;;;2.45;;
20997;SDS011;10657;51.276;6.390;2023-03-22T06:49:37;11.60;;;2.47;;
20997;SDS011;10657;51.276;6.390;2023-03-22T06:52:04;8.50;;;2.17;;
20997;SDS011;10657;51.276;6.390;2023-03-22T06:54:31;5.10;;;1.52;;
20997;SDS011;10657;51.276;6.390;2023-03-22T06:56:57;6.47;;;1.80;;
20997;SDS011;10657;51.276;6.390;2023-03-22T06:59:24;10.02;;;2.55;;
20997;SDS011;10657;51.276;6.390;2023-03-22T07:01:51;10.68;;;2.17;;
20997;SDS011;10657;51.276;6.390;2023-03-22T07:04:17;10.38;;;1.90;;
20997;SDS011;10657;51.276;6.390;2023-03-22T07:06:45;6.38;;;2.13;;
20997;SDS011;10657;51.276;6.390;2023-03-22T07:09:11;6.65;;;1.55;;
20997;SDS011;10657;51.276;6.390;2023-03-22T07:11:38;6.30;;;1.73;;
20997;SDS011;10657;51.276;6.390;2023-03-22T07:14:05;4.05;;;1.30;;
20997;SDS011;10657;51.276;6.390;2023-03-22T07:16:31;6.35;;;2.00;;
20997;SDS011;10657;51.276;6.390;2023-03-22T07:18:58;9.10;;;1.60;;
20997;SDS011;10657;51.276;6.390;2023-03-22T07:21:25;7.60;;;2.15;;
20997;SDS011;10657;51.276;6.390;2023-03-22T07:23:52;4.22;;;1.40;;
20997;SDS011;10657;51.276;6.390;2023-03-22T07:26:20;5.78;;;1.85;;
20997;SDS011;10657;51.276;6.390;2023-03-22T07:28:46;8.43;;;1.98;;
20997;SDS011;10657;51.276;6.390;2023-03-22T07:31:13;4.15;;;1.63;;
20997;SDS011;10657;51.276;6.390;2023-03-22T07:33:40;8.07;;;1.98;;
20997;SDS011;10657;51.276;6.390;2023-03-22T07:36:07;10.05;;;2.03;;
20997;SDS011;10657;51.276;6.390;2023-03-22T07:38:35;6.97;;;1.77;;
20997;SDS011;10657;51.276;6.390;2023-03-22T07:41:02;5.13;;;1.58;;
20997;SDS011;10657;51.276;6.390;2023-03-22T07:43:29;5.10;;;1.50;;
20997;SDS011;10657;51.276;6.390;2023-03-22T07:45:56;7.28;;;1.60;;
20997;SDS011;10657;51.276;6.390;2023-03-22T07:48:23;6.05;;;2.08;;
20997;SDS011;10657;51.276;6.390;2023-03-22T07:50:53;7.47;;;1.77;;
20997;SDS011;10657;51.276;6.390;2023-03-22T07:53:21;9.07;;;2.13;;
20997;SDS011;10657;51.276;6.390;2023-03-22T07:55:47;7.18;;;2.08;;
20997;SDS011;10657;51.276;6.390;2023-03-22T07:58:14;15.13;;;2.20;;
20997;SDS011;10657;51.276;6.390;2023-03-22T08:00:41;10.07;;;2.88;;
20997;SDS011;10657;51.276;6.390;2023-03-22T08:03:09;4.70;;;1.42;;
20997;SDS011;10657;51.276;6.390;2023-03-22T08:05:41;7.45;;;1.98;;
20997;SDS011;10657;51.276;6.390;2023-03-22T08:08:08;6.70;;;1.77;;
20997;SDS011;10657;51.276;6.390;2023-03-22T08:10:36;7.25;;;1.73;;
20997;SDS011;10657;51.276;6.390;2023-03-22T08:13:03;8.85;;;1.98;;
20997;SDS011;10657;51.276;6.390;2023-03-22T08:15:29;8.10;;;1.83;;
20997;SDS011;10657;51.276;6.390;2023-03-22T08:17:56;9.57;;;1.67;;
20997;SDS011;10657;51.276;6.390;2023-03-22T08:20:26;8.70;;;2.25;;
20997;SDS011;10657;51.276;6.390;2023-03-22T08:22:53;9.05;;;1.80;;
20997;SDS011;10657;51.276;6.390;2023-03-22T08:25:20;8.70;;;1.80;;
20997;SDS011;10657;51.276;6.390;2023-03-22T08:27:48;7.25;;;1.75;;
20997;SDS011;10657;51.276;6.390;2023-03-22T08:30:15;3.97;;;1.23;;
20997;SDS011;10657;51.276;6.390;2023-03-22T08:32:42;10.23;;;1.95;;
20997;SDS011;10657;51.276;6.390;2023-03-22T08:35:08;7.28;;;1.90;;
20997;SDS011;10657;51.276;6.390;2023-03-22T08:37:36;8.52;;;2.00;;
20997;SDS011;10657;51.276;6.390;2023-03-22T08:40:02;7.10;;;1.92;;
20997;SDS011;10657;51.276;6.390;2023-03-22T08:42:32;10.77;;;2.20;;
20997;SDS011;10657;51.276;6.390;2023-03-22T08:44:59;6.80;;;1.90;;
20997;SDS011;10657;51.276;6.390;2023-03-22T08:47:25;7.80;;;1.40;;
20997;SDS011;10657;51.276;6.390;2023-03-22T08:49:52;5.32;;;1.65;;
20997;SDS011;10657;51.276;6.390;2023-03-22T08:52:19;8.65;;;1.65;;
20997;SDS011;10657;51.276;6.390;2023-03-22T08:54:45;7.72;;;1.80;;
20997;SDS011;10657;51.276;6.390;2023-03-22T08:57:12;8.85;;;1.98;;
20997;SDS011;10657;51.276;6.390;2023-03-22T08:59:39;6.53;;;1.85;;
20997;SDS011;10657;51.276;6.390;2023-03-22T09:02:07;8.93;;;2.00;;
20997;SDS011;10657;51.276;6.390;2023-03-22T09:04:34;5.90;;;1.70;;
20997;SDS011;10657;51.276;6.390;2023-03-22T09:07:01;8.00;;;1.90;;
20997;SDS011;10657;51.276;6.390;2023-03-22T09:09:27;7.82;;;2.00;;
20997;SDS011;10657;51.276;6.390;2023-03-22T09:11:54;9.82;;;2.00;;
20997;SDS011;10657;51.276;6.390;2023-03-22T09:14:21;6.75;;;2.08;;
20997;SDS011;10657;51.276;6.390;2023-03-22T09:16:48;6.80;;;1.65;;
20997;SDS011;10657;51.276;6.390;2023-03-22T09:19:14;8.55;;;1.85;;
20997;SDS011;10657;51.276;6.390;2023-03-22T09:21:41;6.22;;;1.35;;
20997;SDS011;10657;51.276;6.390;2023-03-22T09:24:08;6.53;;;1.55;;
20997;SDS011;10657;51.276;6.390;2023-03-22T09:26:35;9.10;;;1.90;;
20997;SDS011;10657;51.276;6.390;2023-03-22T09:29:02;7.60;;;1.73;;
20997;SDS011;10657;51.276;6.390;2023-03-22T09:31:28;7.63;;;1.50;;
20997;SDS011;10657;51.276;6.390;2023-03-22T09:33:55;5.68;;;1.67;;
20997;SDS011;10657;51.276;6.390;2023-03-22T09:36:21;8.30;;;1.50;;
20997;SDS011;10657;51.276;6.390;2023-03-22T09:38:48;4.20;;;1.27;;
20997;SDS011;10657;51.276;6.390;2023-03-22T09:41:17;8.35;;;1.75;;
20997;SDS011;10657;51.276;6.390;2023-03-22T09:43:52;9.32;;;2.13;;
20997;SDS011;10657;51.276;6.390;2023-03-22T09:46:29;5.63;;;1.35;;
20997;SDS011;10657;51.276;6.390;2023-03-22T09:49:03;6.80;;;2.00;;
20997;SDS011;10657;51.276;6.390;2023-03-22T09:51:39;10.05;;;2.47;;
20997;SDS011;10657;51.276;6.390;2023-03-22T09:54:18;7.70;;;1.85;;
20997;SDS011;10657;51.276;6.390;2023-03-22T09:56:54;10.52;;;2.25;;
20997;SDS011;10657;51.276;6.390;2023-03-22T09:59:46;11.07;;;2.00;;
20997;SDS011;10657;51.276;6.390;2023-03-22T10:02:26;6.68;;;1.65;;
20997;SDS011;10657;51.276;6.390;2023-03-22T10:05:24;7.53;;;1.80;;
20997;SDS011;10657;51.276;6.390;2023-03-22T10:10:31;8.20;;;2.05;;
20997;SDS011;10657;51.276;6.390;2023-03-22T10:13:03;8.13;;;1.95;;
20997;SDS011;10657;51.276;6.390;2023-03-22T10:15:39;6.75;;;1.95;;
20997;SDS011;10657;51.276;6.390;2023-03-22T10:18:10;8.05;;;1.73;;
20997;SDS011;10657;51.276;6.390;2023-03-22T10:20:52;3.10;;;0.80;;
20997;SDS011;10657;51.276;6.390;2023-03-22T10:23:44;6.63;;;1.55;;
20997;SDS011;10657;51.276;6.390;2023-03-22T10:26:18;5.75;;;1.50;;
20997;SDS011;10657;51.276;6.390;2023-03-22T10:29:14;5.95;;;1.70;;
20997;SDS011;10657;51.276;6.390;2023-03-22T10:31:49;9.75;;;1.70;;
20997;SDS011;10657;51.276;6.390;2023-03-22T10:36:42;8.65;;;1.90;;
20997;SDS011;10657;51.276;6.390;2023-03-22T10:41:51;7.78;;;1.85;;
20997;SDS011;10657;51.276;6.390;2023-03-22T10:44:23;8.82;;;1.80;;
20997;SDS011;10657;51.276;6.390;2023-03-22T10:46:51;9.68;;;1.75;;
20997;SDS011;10657;51.276;6.390;2023-03-22T10:49:23;6.20;;;1.67;;
20997;SDS011;10657;51.276;6.390;2023-03-22T10:52:01;8.25;;;2.17;;
20997;SDS011;10657;51.276;6.390;2023-03-22T10:54:29;8.90;;;1.80;;
20997;SDS011;10657;51.276;6.390;2023-03-22T10:56:56;6.43;;;1.45;;
20997;SDS011;10657;51.276;6.390;2023-03-22T10:59:43;4.20;;;1.65;;
20997;SDS011;10657;51.276;6.390;2023-03-22T11:04:49;9.93;;;1.92;;
20997;SDS011;10657;51.276;6.390;2023-03-22T11:07:26;6.93;;;2.25;;
20997;SDS011;10657;51.276;6.390;2023-03-22T11:12:33;5.57;;;1.45;;
20997;SDS011;10657;51.276;6.390;2023-03-22T11:15:05;6.22;;;1.83;;
20997;SDS011;10657;51.276;6.390;2023-03-22T11:17:49;6.97;;;1.67;;
20997;SDS011;10657;51.276;6.390;2023-03-22T11:20:17;5.93;;;1.70;;
20997;SDS011;10657;51.276;6.390;2023-03-22T11:22:45;7.43;;;1.33;;
20997;SDS011;10657;51.276;6.390;2023-03-22T11:27:53;7.97;;;1.90;;
20997;SDS011;10657;51.276;6.390;2023-03-22T11:30:26;6.07;;;1.77;;
20997;SDS011;10657;51.276;6.390;2023-03-22T11:35:34;11.05;;;2.17;;
20997;SDS011;10657;51.276;6.390;2023-03-22T11:38:03;8.38;;;2.15;;
20997;SDS011;10657;51.276;6.390;2023-03-22T11:40:31;6.47;;;1.45;;
20997;SDS011;10657;51.276;6.390;2023-03-22T11:45:42;5.63;;;1.48;;
20997;SDS011;10657;51.276;6.390;2023-03-22T11:48:26;9.32;;;1.60;;
20997;SDS011;10657;51.276;6.390;2023-03-22T11:54:23;8.13;;;1.23;;
20997;SDS011;10657;51.276;6.390;2023-03-22T11:56:54;7.55;;;1.77;;
20997;SDS011;10657;51.276;6.390;2023-03-22T11:59:28;5.53;;;1.40;;
20997;SDS011;10657;51.276;6.390;2023-03-22T12:02:10;3.45;;;1.23;;
20997;SDS011;10657;51.276;6.390;2023-03-22T12:04:43;4.88;;;1.45;;
20997;SDS011;10657;51.276;6.390;2023-03-22T12:07:14;6.75;;;1.80;;
20997;SDS011;10657;51.276;6.390;2023-03-22T12:09:50;5.57;;;1.50;;
20997;SDS011;10657;51.276;6.390;2023-03-22T12:12:33;7.18;;;1.38;;
20997;SDS011;10657;51.276;6.390;2023-03-22T12:15:16;7.55;;;1.25;;
20997;SDS011;10657;51.276;6.390;2023-03-22T12:17:59;4.30;;;1.10;;
20997;SDS011;10657;51.276;6.390;2023-03-22T12:20:35;4.38;;;1.27;;
20997;SDS011;10657;51.276;6.390;2023-03-22T12:23:17;5.78;;;1.08;;
20997;SDS011;10657;51.276;6.390;2023-03-22T12:25:49;7.93;;;1.20;;
20997;SDS011;10657;51.276;6.390;2023-03-22T12:28:42;4.63;;;1.00;;
20997;SDS011;10657;51.276;6.390;2023-03-22T12:34:12;4.05;;;1.23;;
20997;SDS011;10657;51.276;6.390;2023-03-22T12:37:00;5.18;;;1.20;;
20997;SDS011;10657;51.276;6.390;2023-03-22T12:39:31;5.55;;;1.20;;
20997;SDS011;10657;51.276;6.390;2023-03-22T12:42:05;4.80;;;1.13;;
20997;SDS011;10657;51.276;6.390;2023-03-22T12:44:39;7.85;;;1.60;;
20997;SDS011;10657;51.276;6.390;2023-03-22T12:47:24;7.47;;;1.30;;
20997;SDS011;10657;51.276;6.390;2023-03-22T12:50:12;6.45;;;1.02;;
20997;SDS011;10657;51.276;6.390;2023-03-22T12:52:51;5.18;;;1.55;;
20997;SDS011;10657;51.276;6.390;2023-03-22T12:57:56;7.75;;;1.65;;
20997;SDS011;10657;51.276;6.390;2023-03-22T13:03:05;5.53;;;1.10;;
20997;SDS011;10657;51.276;6.390;2023-03-22T13:05:48;7.95;;;1.30;;
20997;SDS011;10657;51.276;6.390;2023-03-22T13:08:24;7.80;;;1.40;;
20997;SDS011;10657;51.276;6.390;2023-03-22T13:11:01;6.68;;;1.33;;
20997;SDS011;10657;51.276;6.390;2023-03-22T13:13:31;6.35;;;1.30;;
20997;SDS011;10657;51.276;6.390;2023-03-22T13:18:55;6.55;;;1.38;;
20997;SDS011;10657;51.276;6.390;2023-03-22T13:21:25;8.80;;;1.73;;
20997;SDS011;10657;51.276;6.390;2023-03-22T13:29:33;6.25;;;1.40;;
20997;SDS011;10657;51.276;6.390;2023-03-22T13:32:27;6.95;;;1.50;;
20997;SDS011;10657;51.276;6.390;2023-03-22T13:34:55;4.60;;;1.10;;
20997;SDS011;10657;51.276;6.390;2023-03-22T13:37:32;7.00;;;1.92;;
20997;SDS011;10657;51.276;6.390;2023-03-22T13:42:52;4.88;;;1.63;;
20997;SDS011;10657;51.276;6.390;2023-03-22T13:45:29;6.18;;;1.60;;
20997;SDS011;10657;51.276;6.390;2023-03-22T13:48:02;9.13;;;1.15;;
20997;SDS011;10657;51.276;6.390;2023-03-22T13:50:35;4.80;;;1.00;;
20997;SDS011;10657;51.276;6.390;2023-03-22T13:53:03;8.10;;;1.40;;
20997;SDS011;10657;51.276;6.390;2023-03-22T13:56:25;7.07;;;1.73;;
20997;SDS011;10657;51.276;6.390;2023-03-22T14:00:57;6.05;;;1.55;;
20997;SDS011;10657;51.276;6.390;2023-03-22T14:03:27;6.03;;;1.58;;
20997;SDS011;10657;51.276;6.390;2023-03-22T14:06:04;8.68;;;1.65;;
20997;SDS011;10657;51.276;6.390;2023-03-22T14:08:39;6.43;;;1.67;;
20997;SDS011;10657;51.276;6.390;2023-03-22T14:11:17;9.02;;;2.08;;
20997;SDS011;10657;51.276;6.390;2023-03-22T14:13:48;9.60;;;1.92;;
20997;SDS011;10657;51.276;6.390;2023-03-22T14:19:02;5.32;;;1.63;;
20997;SDS011;10657;51.276;6.390;2023-03-22T14:21:36;3.92;;;1.20;;
20997;SDS011;10657;51.276;6.390;2023-03-22T14:24:04;8.55;;;1.90;;
20997;SDS011;10657;51.276;6.390;2023-03-22T14:29:09;4.95;;;1.30;;
20997;SDS011;10657;51.276;6.390;2023-03-22T14:31:41;4.00;;;1.45;;
20997;SDS011;10657;51.276;6.390;2023-03-22T14:34:10;7.60;;;1.55;;
20997;SDS011;10657;51.276;6.390;2023-03-22T14:36:41;6.75;;;1.52;;
20997;SDS011;10657;51.276;6.390;2023-03-22T14:39:16;5.13;;;1.70;;
20997;SDS011;10657;51.276;6.390;2023-03-22T14:41:55;7.78;;;2.10;;
20997;SDS011;10657;51.276;6.390;2023-03-22T14:44:24;7.55;;;1.70;;
20997;SDS011;10657;51.276;6.390;2023-03-22T14:46:50;9.32;;;2.72;;
20997;SDS011;10657;51.276;6.390;2023-03-22T14:49:26;8.48;;;2.72;;
20997;SDS011;10657;51.276;6.390;2023-03-22T14:51:52;9.07;;;2.70;;
20997;SDS011;10657;51.276;6.390;2023-03-22T14:54:18;4.72;;;1.73;;
20997;SDS011;10657;51.276;6.390;2023-03-22T14:56:46;6.80;;;2.15;;
20997;SDS011;10657;51.276;6.390;2023-03-22T14:59:14;5.28;;;1.45;;
20997;SDS011;10657;51.276;6.390;2023-03-22T15:01:45;3.08;;;1.20;;
20997;SDS011;10657;51.276;6.390;2023-03-22T15:04:12;6.20;;;1.48;;
20997;SDS011;10657;51.276;6.390;2023-03-22T15:06:58;4.43;;;1.20;;
20997;SDS011;10657;51.276;6.390;2023-03-22T15:09:26;7.55;;;1.50;;
20997;SDS011;10657;51.276;6.390;2023-03-22T15:11:56;7.53;;;1.60;;
20997;SDS011;10657;51.276;6.390;2023-03-22T15:14:32;3.42;;;1.02;;
20997;SDS011;10657;51.276;6.390;2023-03-22T15:16:59;5.85;;;1.20;;
20997;SDS011;10657;51.276;6.390;2023-03-22T15:19:27;6.00;;;1.10;;
20997;SDS011;10657;51.276;6.390;2023-03-22T15:22:09;5.88;;;1.48;;
20997;SDS011;10657;51.276;6.390;2023-03-22T15:24:37;4.95;;;1.30;;
20997;SDS011;10657;51.276;6.390;2023-03-22T15:27:06;6.75;;;1.58;;
20997;SDS011;10657;51.276;6.390;2023-03-22T15:29:39;8.90;;;4.10;;
20997;SDS011;10657;51.276;6.390;2023-03-22T15:32:08;7.32;;;1.45;;
20997;SDS011;10657;51.276;6.390;2023-03-22T15:34:41;5.15;;;1.27;;
20997;SDS011;10657;51.276;6.390;2023-03-22T15:37:11;4.25;;;1.20;;
20997;SDS011;10657;51.276;6.390;2023-03-22T15:39:50;7.18;;;1.90;;
20997;SDS011;10657;51.276;6.390;2023-03-22T15:42:17;5.82;;;1.85;;
20997;SDS011;10657;51.276;6.390;2023-03-22T15:47:19;5.40;;;1.67;;
20997;SDS011;10657;51.276;6.390;2023-03-22T15:49:49;8.55;;;3.85;;
20997;SDS011;10657;51.276;6.390;2023-03-22T15:52:21;8.00;;;3.03;;
20997;SDS011;10657;51.276;6.390;2023-03-22T16:02:35;5.20;;;1.85;;
20997;SDS011;10657;51.276;6.390;2023-03-22T16:05:14;6.70;;;2.38;;
20997;SDS011;10657;51.276;6.390;2023-03-22T16:07:40;5.55;;;1.30;;
20997;SDS011;10657;51.276;6.390;2023-03-22T16:10:05;4.07;;;1.30;;
20997;SDS011;10657;51.276;6.390;2023-03-22T16:12:31;4.78;;;1.30;;
20997;SDS011;10657;51.276;6.390;2023-03-22T16:14:57;5.60;;;1.42;;
20997;SDS011;10657;51.276;6.390;2023-03-22T16:17:23;5.70;;;1.33;;
20997;SDS011;10657;51.276;6.390;2023-03-22T16:19:50;6.45;;;1.48;;
20997;SDS011;10657;51.276;6.390;2023-03-22T16:22:18;6.30;;;1.48;;
20997;SDS011;10657;51.276;6.390;2023-03-22T16:24:45;5.38;;;1.58;;
20997;SDS011;10657;51.276;6.390;2023-03-22T16:27:24;5.43;;;1.50;;
20997;SDS011;10657;51.276;6.390;2023-03-22T16:29:50;6.55;;;1.45;;
20997;SDS011;10657;51.276;6.390;2023-03-22T16:32:17;6.40;;;1.38;;
20997;SDS011;10657;51.276;6.390;2023-03-22T16:34:47;4.63;;;1.20;;
20997;SDS011;10657;51.276;6.390;2023-03-22T16:37:16;5.30;;;1.60;;
20997;SDS011;10657;51.276;6.390;2023-03-22T16:39:43;5.38;;;1.45;;
20997;SDS011;10657;51.276;6.390;2023-03-22T16:42:14;5.43;;;1.23;;
20997;SDS011;10657;51.276;6.390;2023-03-22T16:44:44;4.72;;;1.40;;
20997;SDS011;10657;51.276;6.390;2023-03-22T16:47:12;5.43;;;1.20;;
20997;SDS011;10657;51.276;6.390;2023-03-22T16:49:39;3.70;;;1.27;;
20997;SDS011;10657;51.276;6.390;2023-03-22T16:52:06;5.45;;;1.40;;
20997;SDS011;10657;51.276;6.390;2023-03-22T16:54:36;6.18;;;1.67;;